sensor_id;sensor_type;location;lat;lon;timestamp;temperature;humidity
20070;DHT22;10195;50.868;4.382;2023-06-26T00:02:01;23.80;99.90
20070;DHT22;10195;50.868;4.382;2023-06-26T00:04:27;23.80;99.90
20070;DHT22;10195;50.868;4.382;2023-06-26T00:06:52;23.80;99.90
20070;DHT22;10195;50.868;4.382;2023-06-26T00:09:18;23.60;99.90
20070;DHT22;10195;50.868;4.382;2023-06-26T00:11:44;23.50;99.90
20070;DHT22;10195;50.868;4.382;2023-06-26T00:14:09;23.50;99.90
20070;DHT22;10195;50.868;4.382;2023-06-26T00:16:35;23.50;99.90
20070;DHT22;10195;50.868;4.382;2023-06-26T00:19:01;23.30;99.90
20070;DHT22;10195;50.868;4.382;2023-06-26T00:21:27;23.30;99.90
20070;DHT22;10195;50.868;4.382;2023-06-26T00:23:53;23.10;99.90
20070;DHT22;10195;50.868;4.382;2023-06-26T00:26:19;23.10;99.90
20070;DHT22;10195;50.868;4.382;2023-06-26T00:28:44;23.20;99.90
20070;DHT22;10195;50.868;4.382;2023-06-26T00:31:10;23.20;99.90
20070;DHT22;10195;50.868;4.382;2023-06-26T00:33:35;23.10;99.90
20070;DHT22;10195;50.868;4.382;2023-06-26T00:36:01;23.00;99.90
20070;DHT22;10195;50.868;4.382;2023-06-26T00:38:26;22.90;99.90
20070;DHT22;10195;50.868;4.382;2023-06-26T00:40:52;22.70;99.90
20070;DHT22;10195;50.868;4.382;2023-06-26T00:43:20;22.60;99.90
20070;DHT22;10195;50.868;4.382;2023-06-26T00:45:45;22.50;99.90
20070;DHT22;10195;50.868;4.382;2023-06-26T00:48:11;22.50;99.90
20070;DHT22;10195;50.868;4.382;2023-06-26T00:50:37;22.50;99.90
20070;DHT22;10195;50.868;4.382;2023-06-26T00:53:03;22.50;99.90
20070;DHT22;10195;50.868;4.382;2023-06-26T00:55:29;22.50;99.90
20070;DHT22;10195;50.868;4.382;2023-06-26T00:57:55;22.40;99.90
20070;DHT22;10195;50.868;4.382;2023-06-26T01:00:21;22.40;99.90
20070;DHT22;10195;50.868;4.382;2023-06-26T01:02:47;22.20;99.90
20070;DHT22;10195;50.868;4.382;2023-06-26T01:05:13;22.20;99.90
20070;DHT22;10195;50.868;4.382;2023-06-26T01:07:48;22.10;99.90
20070;DHT22;10195;50.868;4.382;2023-06-26T01:10:14;22.10;99.90
20070;DHT22;10195;50.868;4.382;2023-06-26T01:12:39;22.00;99.90
20070;DHT22;10195;50.868;4.382;2023-06-26T01:15:06;22.00;99.90
20070;DHT22;10195;50.868;4.382;2023-06-26T01:17:32;22.00;99.90
20070;DHT22;10195;50.868;4.382;2023-06-26T01:19:59;22.00;99.90
20070;DHT22;10195;50.868;4.382;2023-06-26T01:28:13;22.00;99.90
20070;DHT22;10195;50.868;4.382;2023-06-26T01:30:43;21.80;99.90
20070;DHT22;10195;50.868;4.382;2023-06-26T01:33:13;21.70;99.90
20070;DHT22;10195;50.868;4.382;2023-06-26T01:35:40;21.70;99.90
20070;DHT22;10195;50.868;4.382;2023-06-26T01:38:16;21.60;99.90
20070;DHT22;10195;50.868;4.382;2023-06-26T01:40:43;21.70;99.90
20070;DHT22;10195;50.868;4.382;2023-06-26T01:51:41;21.60;99.90
20070;DHT22;10195;50.868;4.382;2023-06-26T01:54:12;21.50;99.90
20070;DHT22;10195;50.868;4.382;2023-06-26T01:56:38;21.50;99.90
20070;DHT22;10195;50.868;4.382;2023-06-26T01:59:06;21.50;99.90
20070;DHT22;10195;50.868;4.382;2023-06-26T02:01:33;21.50;99.90
20070;DHT22;10195;50.868;4.382;2023-06-26T02:03:59;21.40;99.90
20070;DHT22;10195;50.868;4.382;2023-06-26T02:06:25;21.40;99.90
20070;DHT22;10195;50.868;4.382;2023-06-26T02:08:51;21.30;99.90
20070;DHT22;10195;50.868;4.382;2023-06-26T02:11:16;21.20;99.90
20070;DHT22;10195;50.868;4.382;2023-06-26T02:13:42;21.20;99.90
20070;DHT22;10195;50.868;4.382;2023-06-26T02:16:08;21.20;99.90
20070;DHT22;10195;50.868;4.382;2023-06-26T02:18:33;21.10;99.90
20070;DHT22;10195;50.868;4.382;2023-06-26T02:20:59;21.00;99.90
20070;DHT22;10195;50.868;4.382;2023-06-26T02:23:25;20.90;99.90
20070;DHT22;10195;50.868;4.382;2023-06-26T02:25:51;20.90;99.90
20070;DHT22;10195;50.868;4.382;2023-06-26T02:28:16;21.00;99.90
20070;DHT22;10195;50.868;4.382;2023-06-26T02:30:42;21.00;99.90
20070;DHT22;10195;50.868;4.382;2023-06-26T02:33:08;21.00;99.90
20070;DHT22;10195;50.868;4.382;2023-06-26T02:35:33;21.10;99.90
20070;DHT22;10195;50.868;4.382;2023-06-26T02:37:59;21.10;99.90
20070;DHT22;10195;50.868;4.382;2023-06-26T02:40:25;21.00;99.90
20070;DHT22;10195;50.868;4.382;2023-06-26T02:42:50;20.80;99.90
20070;DHT22;10195;50.868;4.382;2023-06-26T02:45:16;20.90;99.90
20070;DHT22;10195;50.868;4.382;2023-06-26T02:47:41;20.90;99.90
20070;DHT22;10195;50.868;4.382;2023-06-26T02:50:07;20.90;99.90
20070;DHT22;10195;50.868;4.382;2023-06-26T02:52:33;20.70;99.90
20070;DHT22;10195;50.868;4.382;2023-06-26T02:54:59;20.60;99.90
20070;DHT22;10195;50.868;4.382;2023-06-26T02:57:24;20.60;99.90
20070;DHT22;10195;50.868;4.382;2023-06-26T02:59:50;20.60;99.90
20070;DHT22;10195;50.868;4.382;2023-06-26T03:02:16;20.50;99.90
20070;DHT22;10195;50.868;4.382;2023-06-26T03:04:41;20.50;99.90
20070;DHT22;10195;50.868;4.382;2023-06-26T03:07:08;20.50;99.90
20070;DHT22;10195;50.868;4.382;2023-06-26T03:09:34;20.50;99.90
20070;DHT22;10195;50.868;4.382;2023-06-26T03:12:00;20.50;99.90
20070;DHT22;10195;50.868;4.382;2023-06-26T03:14:25;20.40;99.90
20070;DHT22;10195;50.868;4.382;2023-06-26T03:16:52;20.40;99.90
20070;DHT22;10195;50.868;4.382;2023-06-26T03:19:18;20.30;99.90
20070;DHT22;10195;50.868;4.382;2023-06-26T03:21:44;20.10;99.90
20070;DHT22;10195;50.868;4.382;2023-06-26T03:24:09;20.10;99.90
20070;DHT22;10195;50.868;4.382;2023-06-26T03:26:35;20.10;99.90
20070;DHT22;10195;50.868;4.382;2023-06-26T03:29:01;20.10;99.90
20070;DHT22;10195;50.868;4.382;2023-06-26T03:31:26;20.10;99.90
20070;DHT22;10195;50.868;4.382;2023-06-26T03:33:52;20.00;99.90
20070;DHT22;10195;50.868;4.382;2023-06-26T03:36:17;20.00;99.90
20070;DHT22;10195;50.868;4.382;2023-06-26T03:38:43;20.00;99.90
20070;DHT22;10195;50.868;4.382;2023-06-26T03:41:09;20.00;99.90
20070;DHT22;10195;50.868;4.382;2023-06-26T03:43:34;20.00;99.90
20070;DHT22;10195;50.868;4.382;2023-06-26T03:46:00;19.90;99.90
20070;DHT22;10195;50.868;4.382;2023-06-26T03:48:26;19.80;99.90
20070;DHT22;10195;50.868;4.382;2023-06-26T03:50:51;19.90;99.90
20070;DHT22;10195;50.868;4.382;2023-06-26T03:53:17;19.90;99.90
20070;DHT22;10195;50.868;4.382;2023-06-26T03:55:43;19.90;99.90
20070;DHT22;10195;50.868;4.382;2023-06-26T03:58:08;19.90;99.90
20070;DHT22;10195;50.868;4.382;2023-06-26T04:00:34;19.90;99.90
20070;DHT22;10195;50.868;4.382;2023-06-26T04:03:00;19.90;99.90
20070;DHT22;10195;50.868;4.382;2023-06-26T04:05:25;19.80;99.90
20070;DHT22;10195;50.868;4.382;2023-06-26T04:07:52;19.80;99.90
20070;DHT22;10195;50.868;4.382;2023-06-26T04:10:18;19.70;99.90
20070;DHT22;10195;50.868;4.382;2023-06-26T04:12:45;19.70;99.90
20070;DHT22;10195;50.868;4.382;2023-06-26T04:15:10;19.70;99.90
20070;DHT22;10195;50.868;4.382;2023-06-26T04:17:36;19.50;99.90
20070;DHT22;10195;50.868;4.382;2023-06-26T04:20:02;19.50;99.90
20070;DHT22;10195;50.868;4.382;2023-06-26T04:22:32;19.50;99.90
20070;DHT22;10195;50.868;4.382;2023-06-26T04:24:57;19.50;99.90
20070;DHT22;10195;50.868;4.382;2023-06-26T04:27:23;19.60;99.90
20070;DHT22;10195;50.868;4.382;2023-06-26T04:29:48;19.60;99.90
20070;DHT22;10195;50.868;4.382;2023-06-26T04:32:14;19.70;99.90
20070;DHT22;10195;50.868;4.382;2023-06-26T04:34:40;19.80;99.90
20070;DHT22;10195;50.868;4.382;2023-06-26T04:37:08;19.80;99.90
20070;DHT22;10195;50.868;4.382;2023-06-26T04:39:35;19.80;99.90
20070;DHT22;10195;50.868;4.382;2023-06-26T04:42:03;19.80;99.90
20070;DHT22;10195;50.868;4.382;2023-06-26T04:44:28;19.70;99.90
20070;DHT22;10195;50.868;4.382;2023-06-26T04:46:54;19.60;99.90
20070;DHT22;10195;50.868;4.382;2023-06-26T04:49:20;19.50;99.90
20070;DHT22;10195;50.868;4.382;2023-06-26T04:51:45;19.40;99.90
20070;DHT22;10195;50.868;4.382;2023-06-26T04:54:11;19.30;99.90
20070;DHT22;10195;50.868;4.382;2023-06-26T04:56:37;19.40;99.90
20070;DHT22;10195;50.868;4.382;2023-06-26T04:59:05;19.30;99.90
20070;DHT22;10195;50.868;4.382;2023-06-26T05:01:31;19.30;99.90
20070;DHT22;10195;50.868;4.382;2023-06-26T05:03:58;19.30;99.90
20070;DHT22;10195;50.868;4.382;2023-06-26T05:06:24;19.30;99.90
20070;DHT22;10195;50.868;4.382;2023-06-26T05:08:49;19.20;99.90
20070;DHT22;10195;50.868;4.382;2023-06-26T05:11:15;19.20;99.90
20070;DHT22;10195;50.868;4.382;2023-06-26T05:13:41;19.30;99.90
20070;DHT22;10195;50.868;4.382;2023-06-26T05:16:08;19.30;99.90
20070;DHT22;10195;50.868;4.382;2023-06-26T05:18:34;19.30;99.90
20070;DHT22;10195;50.868;4.382;2023-06-26T05:21:01;19.30;99.90
20070;DHT22;10195;50.868;4.382;2023-06-26T05:23:27;19.20;99.90
20070;DHT22;10195;50.868;4.382;2023-06-26T05:25:55;19.20;99.90
20070;DHT22;10195;50.868;4.382;2023-06-26T05:28:22;19.20;99.90
20070;DHT22;10195;50.868;4.382;2023-06-26T05:30:50;19.40;99.90
20070;DHT22;10195;50.868;4.382;2023-06-26T05:33:17;19.50;99.90
20070;DHT22;10195;50.868;4.382;2023-06-26T05:35:45;19.50;99.90
20070;DHT22;10195;50.868;4.382;2023-06-26T05:38:12;19.70;99.90
20070;DHT22;10195;50.868;4.382;2023-06-26T05:40:39;20.30;99.90
20070;DHT22;10195;50.868;4.382;2023-06-26T05:43:06;21.00;99.90
20070;DHT22;10195;50.868;4.382;2023-06-26T05:45:32;21.40;99.90
20070;DHT22;10195;50.868;4.382;2023-06-26T05:47:58;21.90;99.90
20070;DHT22;10195;50.868;4.382;2023-06-26T05:50:24;22.10;99.90
20070;DHT22;10195;50.868;4.382;2023-06-26T05:52:50;22.40;99.90
20070;DHT22;10195;50.868;4.382;2023-06-26T05:55:16;22.70;99.90
20070;DHT22;10195;50.868;4.382;2023-06-26T05:57:42;22.70;99.90
20070;DHT22;10195;50.868;4.382;2023-06-26T06:00:09;23.10;99.90
20070;DHT22;10195;50.868;4.382;2023-06-26T06:02:37;23.20;99.90
20070;DHT22;10195;50.868;4.382;2023-06-26T06:05:03;23.40;99.90
20070;DHT22;10195;50.868;4.382;2023-06-26T06:07:30;23.30;99.90
20070;DHT22;10195;50.868;4.382;2023-06-26T06:09:56;23.40;99.90
20070;DHT22;10195;50.868;4.382;2023-06-26T06:12:22;23.70;99.90
20070;DHT22;10195;50.868;4.382;2023-06-26T06:14:47;23.10;99.90
20070;DHT22;10195;50.868;4.382;2023-06-26T06:17:13;23.70;99.90
20070;DHT22;10195;50.868;4.382;2023-06-26T06:19:38;24.00;99.90
20070;DHT22;10195;50.868;4.382;2023-06-26T06:22:04;24.10;99.90
20070;DHT22;10195;50.868;4.382;2023-06-26T06:24:30;24.50;99.90
20070;DHT22;10195;50.868;4.382;2023-06-26T06:26:55;24.70;99.90
20070;DHT22;10195;50.868;4.382;2023-06-26T06:29:21;24.20;99.90
20070;DHT22;10195;50.868;4.382;2023-06-26T06:31:47;24.00;99.90
20070;DHT22;10195;50.868;4.382;2023-06-26T06:34:12;24.10;99.90
20070;DHT22;10195;50.868;4.382;2023-06-26T06:36:39;23.60;99.90
20070;DHT22;10195;50.868;4.382;2023-06-26T06:39:04;24.20;99.90
20070;DHT22;10195;50.868;4.382;2023-06-26T06:41:30;24.10;99.90
20070;DHT22;10195;50.868;4.382;2023-06-26T06:43:56;24.30;99.90
20070;DHT22;10195;50.868;4.382;2023-06-26T06:46:21;24.60;99.90
20070;DHT22;10195;50.868;4.382;2023-06-26T06:48:47;24.20;99.90
20070;DHT22;10195;50.868;4.382;2023-06-26T06:51:13;23.90;99.90
20070;DHT22;10195;50.868;4.382;2023-06-26T06:53:38;24.30;99.90
20070;DHT22;10195;50.868;4.382;2023-06-26T06:56:04;24.80;99.90
20070;DHT22;10195;50.868;4.382;2023-06-26T06:58:30;25.60;99.90
20070;DHT22;10195;50.868;4.382;2023-06-26T07:00:59;25.30;99.90
20070;DHT22;10195;50.868;4.382;2023-06-26T07:03:25;24.90;99.90
20070;DHT22;10195;50.868;4.382;2023-06-26T07:05:51;25.00;99.90
20070;DHT22;10195;50.868;4.382;2023-06-26T07:08:16;24.80;99.90
20070;DHT22;10195;50.868;4.382;2023-06-26T07:10:42;25.00;99.90
20070;DHT22;10195;50.868;4.382;2023-06-26T07:13:08;24.20;99.90
20070;DHT22;10195;50.868;4.382;2023-06-26T07:15:33;24.00;99.90
20070;DHT22;10195;50.868;4.382;2023-06-26T07:17:59;24.40;99.90
20070;DHT22;10195;50.868;4.382;2023-06-26T07:20:25;24.90;99.90
20070;DHT22;10195;50.868;4.382;2023-06-26T07:22:50;25.20;99.90
20070;DHT22;10195;50.868;4.382;2023-06-26T07:25:17;25.60;99.90
20070;DHT22;10195;50.868;4.382;2023-06-26T07:27:42;25.60;99.90
20070;DHT22;10195;50.868;4.382;2023-06-26T07:30:09;25.00;99.90
20070;DHT22;10195;50.868;4.382;2023-06-26T07:32:36;24.50;99.90
20070;DHT22;10195;50.868;4.382;2023-06-26T07:35:01;24.80;99.90
20070;DHT22;10195;50.868;4.382;2023-06-26T07:37:27;25.30;99.90
20070;DHT22;10195;50.868;4.382;2023-06-26T07:39:53;25.60;99.90
20070;DHT22;10195;50.868;4.382;2023-06-26T07:42:18;25.50;99.90
20070;DHT22;10195;50.868;4.382;2023-06-26T07:44:44;26.00;99.90
20070;DHT22;10195;50.868;4.382;2023-06-26T07:47:10;26.10;99.90
20070;DHT22;10195;50.868;4.382;2023-06-26T07:49:36;26.50;99.90
20070;DHT22;10195;50.868;4.382;2023-06-26T07:52:03;26.60;99.90
20070;DHT22;10195;50.868;4.382;2023-06-26T07:54:28;26.40;99.90
20070;DHT22;10195;50.868;4.382;2023-06-26T07:57:00;25.80;99.90
20070;DHT22;10195;50.868;4.382;2023-06-26T07:59:27;26.30;99.90
20070;DHT22;10195;50.868;4.382;2023-06-26T08:01:55;26.70;99.90
20070;DHT22;10195;50.868;4.382;2023-06-26T08:04:24;27.30;99.90
20070;DHT22;10195;50.868;4.382;2023-06-26T08:06:55;27.30;99.90
20070;DHT22;10195;50.868;4.382;2023-06-26T08:09:24;26.80;99.90
20070;DHT22;10195;50.868;4.382;2023-06-26T08:11:50;26.70;99.90
20070;DHT22;10195;50.868;4.382;2023-06-26T08:14:16;26.80;99.90
20070;DHT22;10195;50.868;4.382;2023-06-26T08:16:43;27.00;99.90
20070;DHT22;10195;50.868;4.382;2023-06-26T08:19:13;27.40;99.90
20070;DHT22;10195;50.868;4.382;2023-06-26T08:21:40;27.90;99.90
20070;DHT22;10195;50.868;4.382;2023-06-26T08:24:05;28.40;99.90
20070;DHT22;10195;50.868;4.382;2023-06-26T08:26:31;28.70;99.90
20070;DHT22;10195;50.868;4.382;2023-06-26T08:28:57;28.10;99.90
20070;DHT22;10195;50.868;4.382;2023-06-26T08:31:22;27.70;99.90
20070;DHT22;10195;50.868;4.382;2023-06-26T08:33:48;26.50;99.90
20070;DHT22;10195;50.868;4.382;2023-06-26T08:36:14;26.00;99.90
20070;DHT22;10195;50.868;4.382;2023-06-26T08:38:40;24.70;99.90
20070;DHT22;10195;50.868;4.382;2023-06-26T08:41:09;24.40;99.90
20070;DHT22;10195;50.868;4.382;2023-06-26T08:43:35;24.80;99.90
20070;DHT22;10195;50.868;4.382;2023-06-26T08:46:02;24.90;99.90
20070;DHT22;10195;50.868;4.382;2023-06-26T08:48:32;25.00;99.90
20070;DHT22;10195;50.868;4.382;2023-06-26T08:51:01;25.20;99.90
20070;DHT22;10195;50.868;4.382;2023-06-26T08:53:59;25.20;99.90
20070;DHT22;10195;50.868;4.382;2023-06-26T08:56:32;25.00;99.90
20070;DHT22;10195;50.868;4.382;2023-06-26T08:58:57;24.90;99.90
20070;DHT22;10195;50.868;4.382;2023-06-26T09:01:24;24.40;99.90
20070;DHT22;10195;50.868;4.382;2023-06-26T09:03:51;24.30;99.90
20070;DHT22;10195;50.868;4.382;2023-06-26T09:06:17;24.50;99.90
20070;DHT22;10195;50.868;4.382;2023-06-26T09:08:44;24.80;99.90
20070;DHT22;10195;50.868;4.382;2023-06-26T09:11:09;24.60;99.90
20070;DHT22;10195;50.868;4.382;2023-06-26T09:13:35;24.80;99.90
20070;DHT22;10195;50.868;4.382;2023-06-26T09:16:08;24.90;99.90
20070;DHT22;10195;50.868;4.382;2023-06-26T09:18:34;25.50;99.90
20070;DHT22;10195;50.868;4.382;2023-06-26T09:21:04;25.50;99.90
20070;DHT22;10195;50.868;4.382;2023-06-26T09:23:31;25.90;99.90
20070;DHT22;10195;50.868;4.382;2023-06-26T09:25:57;26.80;99.90
20070;DHT22;10195;50.868;4.382;2023-06-26T09:28:23;26.70;99.90
20070;DHT22;10195;50.868;4.382;2023-06-26T09:30:49;26.20;99.90
20070;DHT22;10195;50.868;4.382;2023-06-26T09:33:17;25.50;99.90
20070;DHT22;10195;50.868;4.382;2023-06-26T09:35:44;25.10;99.90
20070;DHT22;10195;50.868;4.382;2023-06-26T09:38:11;24.40;99.90
20070;DHT22;10195;50.868;4.382;2023-06-26T09:40:36;24.40;99.90
20070;DHT22;10195;50.868;4.382;2023-06-26T09:43:10;25.10;99.90
20070;DHT22;10195;50.868;4.382;2023-06-26T09:45:39;25.60;99.90
20070;DHT22;10195;50.868;4.382;2023-06-26T09:48:06;25.30;99.90
20070;DHT22;10195;50.868;4.382;2023-06-26T09:50:34;25.30;99.90
20070;DHT22;10195;50.868;4.382;2023-06-26T09:53:13;24.50;99.90
20070;DHT22;10195;50.868;4.382;2023-06-26T09:55:39;24.60;99.90
20070;DHT22;10195;50.868;4.382;2023-06-26T09:58:06;24.70;99.90
20070;DHT22;10195;50.868;4.382;2023-06-26T10:00:32;24.90;99.90
20070;DHT22;10195;50.868;4.382;2023-06-26T10:03:01;24.50;99.90
20070;DHT22;10195;50.868;4.382;2023-06-26T10:05:26;24.70;99.90
20070;DHT22;10195;50.868;4.382;2023-06-26T10:07:53;24.80;99.90
20070;DHT22;10195;50.868;4.382;2023-06-26T10:10:20;24.60;99.90
20070;DHT22;10195;50.868;4.382;2023-06-26T10:12:49;24.30;99.90
20070;DHT22;10195;50.868;4.382;2023-06-26T10:15:17;24.60;99.90
20070;DHT22;10195;50.868;4.382;2023-06-26T10:17:46;24.60;99.90
20070;DHT22;10195;50.868;4.382;2023-06-26T10:20:13;24.00;99.90
20070;DHT22;10195;50.868;4.382;2023-06-26T10:22:46;23.70;99.90
20070;DHT22;10195;50.868;4.382;2023-06-26T10:25:16;23.40;99.90
20070;DHT22;10195;50.868;4.382;2023-06-26T10:27:45;23.10;99.90
20070;DHT22;10195;50.868;4.382;2023-06-26T10:30:16;22.80;99.90
20070;DHT22;10195;50.868;4.382;2023-06-26T10:32:43;22.80;99.90
20070;DHT22;10195;50.868;4.382;2023-06-26T10:35:10;22.60;99.90
20070;DHT22;10195;50.868;4.382;2023-06-26T10:37:47;22.70;99.90
20070;DHT22;10195;50.868;4.382;2023-06-26T10:40:24;23.10;99.90
20070;DHT22;10195;50.868;4.382;2023-06-26T10:42:50;23.40;99.90
20070;DHT22;10195;50.868;4.382;2023-06-26T10:45:20;23.70;99.90
20070;DHT22;10195;50.868;4.382;2023-06-26T10:47:48;24.00;99.90
20070;DHT22;10195;50.868;4.382;2023-06-26T10:52:46;24.40;99.90
20070;DHT22;10195;50.868;4.382;2023-06-26T10:55:31;24.60;99.90
20070;DHT22;10195;50.868;4.382;2023-06-26T10:57:57;25.00;99.90
20070;DHT22;10195;50.868;4.382;2023-06-26T11:00:23;25.30;99.90
20070;DHT22;10195;50.868;4.382;2023-06-26T11:02:52;24.90;99.90
20070;DHT22;10195;50.868;4.382;2023-06-26T11:05:28;24.80;99.90
20070;DHT22;10195;50.868;4.382;2023-06-26T11:08:08;24.80;99.90
20070;DHT22;10195;50.868;4.382;2023-06-26T11:11:03;24.90;99.90
20070;DHT22;10195;50.868;4.382;2023-06-26T11:13:29;25.10;99.90
20070;DHT22;10195;50.868;4.382;2023-06-26T11:15:55;25.20;99.90
20070;DHT22;10195;50.868;4.382;2023-06-26T11:18:22;25.40;99.90
20070;DHT22;10195;50.868;4.382;2023-06-26T11:20:49;25.70;99.90
20070;DHT22;10195;50.868;4.382;2023-06-26T11:25:47;25.50;99.90
20070;DHT22;10195;50.868;4.382;2023-06-26T11:28:12;25.30;99.90
20070;DHT22;10195;50.868;4.382;2023-06-26T11:30:38;25.10;99.90
20070;DHT22;10195;50.868;4.382;2023-06-26T11:33:08;25.10;99.90
20070;DHT22;10195;50.868;4.382;2023-06-26T11:35:34;25.10;99.90
20070;DHT22;10195;50.868;4.382;2023-06-26T11:38:00;25.40;99.90
20070;DHT22;10195;50.868;4.382;2023-06-26T11:40:33;25.40;99.90
20070;DHT22;10195;50.868;4.382;2023-06-26T11:43:03;25.50;99.90
20070;DHT22;10195;50.868;4.382;2023-06-26T11:45:29;25.80;99.90
20070;DHT22;10195;50.868;4.382;2023-06-26T11:47:59;25.90;99.90
20070;DHT22;10195;50.868;4.382;2023-06-26T11:50:25;25.80;99.90
20070;DHT22;10195;50.868;4.382;2023-06-26T11:52:58;25.40;99.90
20070;DHT22;10195;50.868;4.382;2023-06-26T11:55:25;24.70;99.90
20070;DHT22;10195;50.868;4.382;2023-06-26T11:57:56;24.30;99.90
20070;DHT22;10195;50.868;4.382;2023-06-26T12:00:22;24.80;99.90
20070;DHT22;10195;50.868;4.382;2023-06-26T12:02:48;25.30;99.90
20070;DHT22;10195;50.868;4.382;2023-06-26T12:05:16;25.80;99.90
20070;DHT22;10195;50.868;4.382;2023-06-26T12:07:45;26.10;99.90
20070;DHT22;10195;50.868;4.382;2023-06-26T12:10:11;25.70;99.90
20070;DHT22;10195;50.868;4.382;2023-06-26T12:12:38;25.50;99.90
20070;DHT22;10195;50.868;4.382;2023-06-26T12:15:06;25.00;99.90
20070;DHT22;10195;50.868;4.382;2023-06-26T12:17:32;24.40;99.90
20070;DHT22;10195;50.868;4.382;2023-06-26T12:19:57;24.00;99.90
20070;DHT22;10195;50.868;4.382;2023-06-26T12:22:23;23.90;99.90
20070;DHT22;10195;50.868;4.382;2023-06-26T12:24:49;24.50;99.90
20070;DHT22;10195;50.868;4.382;2023-06-26T12:27:17;25.10;99.90
20070;DHT22;10195;50.868;4.382;2023-06-26T12:29:51;25.60;99.90
20070;DHT22;10195;50.868;4.382;2023-06-26T12:32:17;25.60;99.90
20070;DHT22;10195;50.868;4.382;2023-06-26T12:34:48;25.70;99.90
20070;DHT22;10195;50.868;4.382;2023-06-26T12:37:14;25.90;99.90
20070;DHT22;10195;50.868;4.382;2023-06-26T12:39:47;26.00;99.90
20070;DHT22;10195;50.868;4.382;2023-06-26T12:44:43;25.10;99.90
20070;DHT22;10195;50.868;4.382;2023-06-26T12:47:09;24.90;99.90
20070;DHT22;10195;50.868;4.382;2023-06-26T12:49:44;24.30;99.90
20070;DHT22;10195;50.868;4.382;2023-06-26T12:52:15;24.00;99.90
20070;DHT22;10195;50.868;4.382;2023-06-26T12:54:42;24.10;99.90
20070;DHT22;10195;50.868;4.382;2023-06-26T12:57:09;24.20;99.90
20070;DHT22;10195;50.868;4.382;2023-06-26T12:59:38;24.50;99.90
20070;DHT22;10195;50.868;4.382;2023-06-26T13:02:04;24.70;99.90
20070;DHT22;10195;50.868;4.382;2023-06-26T13:04:30;24.90;99.90
20070;DHT22;10195;50.868;4.382;2023-06-26T13:06:56;25.30;99.90
20070;DHT22;10195;50.868;4.382;2023-06-26T13:09:25;25.60;99.90
20070;DHT22;10195;50.868;4.382;2023-06-26T13:11:52;25.80;99.90
20070;DHT22;10195;50.868;4.382;2023-06-26T13:14:18;25.30;99.90
20070;DHT22;10195;50.868;4.382;2023-06-26T13:16:44;24.90;99.90
20070;DHT22;10195;50.868;4.382;2023-06-26T13:19:09;25.40;99.90
20070;DHT22;10195;50.868;4.382;2023-06-26T13:21:35;25.40;99.90
20070;DHT22;10195;50.868;4.382;2023-06-26T13:24:01;24.90;99.90
20070;DHT22;10195;50.868;4.382;2023-06-26T13:26:28;24.90;99.90
20070;DHT22;10195;50.868;4.382;2023-06-26T13:28:54;24.80;99.90
20070;DHT22;10195;50.868;4.382;2023-06-26T13:31:20;24.80;99.90
20070;DHT22;10195;50.868;4.382;2023-06-26T13:33:47;25.00;99.90
20070;DHT22;10195;50.868;4.382;2023-06-26T13:36:15;25.00;99.90
20070;DHT22;10195;50.868;4.382;2023-06-26T13:38:40;24.90;99.90
20070;DHT22;10195;50.868;4.382;2023-06-26T13:41:06;24.60;99.90
20070;DHT22;10195;50.868;4.382;2023-06-26T13:43:32;24.50;99.90
20070;DHT22;10195;50.868;4.382;2023-06-26T13:45:57;24.60;99.90
20070;DHT22;10195;50.868;4.382;2023-06-26T13:48:23;24.90;99.90
20070;DHT22;10195;50.868;4.382;2023-06-26T13:50:52;25.10;99.90
20070;DHT22;10195;50.868;4.382;2023-06-26T13:53:18;25.40;99.90
20070;DHT22;10195;50.868;4.382;2023-06-26T13:55:44;25.30;99.90
20070;DHT22;10195;50.868;4.382;2023-06-26T13:58:10;25.20;99.90
20070;DHT22;10195;50.868;4.382;2023-06-26T14:00:37;25.40;99.90
20070;DHT22;10195;50.868;4.382;2023-06-26T14:03:04;25.30;99.90
20070;DHT22;10195;50.868;4.382;2023-06-26T14:05:36;24.70;99.90
20070;DHT22;10195;50.868;4.382;2023-06-26T14:08:07;25.10;99.90
20070;DHT22;10195;50.868;4.382;2023-06-26T14:10:33;25.20;99.90
20070;DHT22;10195;50.868;4.382;2023-06-26T14:12:59;25.00;99.90
20070;DHT22;10195;50.868;4.382;2023-06-26T14:15:25;24.70;99.90
20070;DHT22;10195;50.868;4.382;2023-06-26T14:17:51;24.60;99.90
20070;DHT22;10195;50.868;4.382;2023-06-26T14:20:17;24.40;99.90
20070;DHT22;10195;50.868;4.382;2023-06-26T14:22:46;24.00;99.90
20070;DHT22;10195;50.868;4.382;2023-06-26T14:25:12;24.00;99.90
20070;DHT22;10195;50.868;4.382;2023-06-26T14:27:38;24.20;99.90
20070;DHT22;10195;50.868;4.382;2023-06-26T14:30:04;24.40;99.90
20070;DHT22;10195;50.868;4.382;2023-06-26T14:32:30;24.50;99.90
20070;DHT22;10195;50.868;4.382;2023-06-26T14:34:57;24.80;99.90
20070;DHT22;10195;50.868;4.382;2023-06-26T14:37:23;25.00;99.90
20070;DHT22;10195;50.868;4.382;2023-06-26T14:39:49;25.20;99.90
20070;DHT22;10195;50.868;4.382;2023-06-26T14:42:15;25.20;99.90
20070;DHT22;10195;50.868;4.382;2023-06-26T14:44:41;24.80;99.90
20070;DHT22;10195;50.868;4.382;2023-06-26T14:47:07;24.60;99.90
20070;DHT22;10195;50.868;4.382;2023-06-26T14:49:32;24.40;99.90
20070;DHT22;10195;50.868;4.382;2023-06-26T14:51:58;24.40;99.90
20070;DHT22;10195;50.868;4.382;2023-06-26T14:54:24;24.50;99.90
20070;DHT22;10195;50.868;4.382;2023-06-26T14:56:50;24.70;99.90
20070;DHT22;10195;50.868;4.382;2023-06-26T14:59:15;24.80;99.90
20070;DHT22;10195;50.868;4.382;2023-06-26T15:01:41;24.90;99.90
20070;DHT22;10195;50.868;4.382;2023-06-26T15:04:07;24.80;99.90
20070;DHT22;10195;50.868;4.382;2023-06-26T15:06:33;24.70;99.90
20070;DHT22;10195;50.868;4.382;2023-06-26T15:08:59;24.30;99.90
20070;DHT22;10195;50.868;4.382;2023-06-26T15:11:25;24.30;99.90
20070;DHT22;10195;50.868;4.382;2023-06-26T15:13:51;24.00;99.90
20070;DHT22;10195;50.868;4.382;2023-06-26T15:16:17;23.70;99.90
20070;DHT22;10195;50.868;4.382;2023-06-26T15:18:43;23.50;99.90
20070;DHT22;10195;50.868;4.382;2023-06-26T15:21:09;23.10;99.90
20070;DHT22;10195;50.868;4.382;2023-06-26T15:23:34;23.00;99.90
20070;DHT22;10195;50.868;4.382;2023-06-26T15:26:00;23.30;99.90
20070;DHT22;10195;50.868;4.382;2023-06-26T15:28:26;23.60;99.90
20070;DHT22;10195;50.868;4.382;2023-06-26T15:30:52;23.70;99.90
20070;DHT22;10195;50.868;4.382;2023-06-26T15:33:18;23.60;99.90
20070;DHT22;10195;50.868;4.382;2023-06-26T15:35:43;23.70;99.90
20070;DHT22;10195;50.868;4.382;2023-06-26T15:38:10;23.50;99.90
20070;DHT22;10195;50.868;4.382;2023-06-26T15:40:36;23.40;99.90
20070;DHT22;10195;50.868;4.382;2023-06-26T15:43:01;23.40;99.90
20070;DHT22;10195;50.868;4.382;2023-06-26T15:45:27;23.60;99.90
20070;DHT22;10195;50.868;4.382;2023-06-26T15:47:53;23.60;99.90
20070;DHT22;10195;50.868;4.382;2023-06-26T15:50:19;23.40;99.90